Time;durP1;ratioP1;P1;durP2;ratioP2;P2;SDS_P1;SDS_P2;PMS_P1;PMS_P2;Temp;Humidity;BMP_temperature;BMP_pressure;BME280_temperature;BME280_humidity;BME280_pressure;Samples;Min_cycle;Max_cycle;Signal;HPM_P1;HPM_P2
2022/12/05 00:06:39;;;;;;;24.3;14.3;;;;;;;1.4;92.5;99300;;;;
2022/12/05 00:16:39;;;;;;;24.3;14.3;;;;;;;1.5;92.3;99270;;;;
2022/12/05 00:27:39;;;;;;;28;14.3;;;;;;;1.5;92;99270;;;;
2022/12/05 00:38:39;;;;;;;28;14.3;;;;;;;1.4;92.2;99260;;;;
2022/12/05 00:48:39;;;;;;;28;14.3;;;;;;;1.4;92.1;99250;;;;
2022/12/05 00:58:39;;;;;;;28.1;14.7;;;;;;;1.3;92.2;99240;;;;
2022/12/05 01:09:39;;;;;;;28.1;14.7;;;;;;;1.3;92.1;99250;;;;
2022/12/05 01:20:39;;;;;;;28.1;14.7;;;;;;;1.2;92.1;99230;;;;
2022/12/05 01:31:39;;;;;;;22.8;13.5;;;;;;;1.1;92.3;99230;;;;
2022/12/05 01:42:39;;;;;;;22.8;13.5;;;;;;;1.2;92.3;99240;;;;
2022/12/05 01:53:39;;;;;;;22.8;13.5;;;;;;;1.3;92.3;99220;;;;
2022/12/05 02:03:39;;;;;;;21.5;11.2;;;;;;;1.3;92.1;99220;;;;
2022/12/05 02:14:39;;;;;;;21.5;11.2;;;;;;;1.1;92.5;99220;;;;
2022/12/05 02:24:39;;;;;;;24.1;13.2;;;;;;;1.2;92.5;99210;;;;
2022/12/05 02:35:39;;;;;;;24.1;13.2;;;;;;;1.2;92.5;99200;;;;
2022/12/05 02:46:39;;;;;;;24.1;13.2;;;;;;;1.3;92.5;99210;;;;
2022/12/05 02:57:39;;;;;;;21;12.6;;;;;;;1.3;92.5;99210;;;;
2022/12/05 03:08:39;;;;;;;21;12.6;;;;;;;1.1;92.7;99200;;;;
2022/12/05 03:18:39;;;;;;;21;12.6;;;;;;;1.2;92.7;99200;;;;
2022/12/05 03:29:39;;;;;;;21;13.1;;;;;;;1.2;93;99190;;;;
2022/12/05 03:40:39;;;;;;;21;13.1;;;;;;;1.2;92.9;99230;;;;
2022/12/05 03:51:39;;;;;;;21;13.1;;;;;;;1.2;93.1;99230;;;;
2022/12/05 04:02:44;;;;;;;23.3;10.4;;;;;;;1.5;93;99240;;;;
2022/12/05 04:13:39;;;;;;;23.3;10.4;;;;;;;1.7;92.8;99240;;;;
2022/12/05 04:25:43;;;;;;;20.4;10.1;;;;;;;1.4;92.6;99220;;;;
2022/12/05 04:34:39;;;;;;;20.4;10.1;;;;;;;1.4;92.5;99230;;;;
2022/12/05 04:44:39;;;;;;;20.4;10.1;;;;;;;1.5;92.5;99220;;;;
2022/12/05 04:54:39;;;;;;;18.6;10.1;;;;;;;1.4;92.5;99210;;;;
2022/12/05 05:05:39;;;;;;;18.6;10.1;;;;;;;1.4;92.7;99200;;;;
2022/12/05 05:16:39;;;;;;;18.6;10.1;;;;;;;1.4;92.7;99180;;;;
2022/12/05 05:27:39;;;;;;;13.7;8.1;;;;;;;1.4;92.5;99180;;;;
2022/12/05 05:37:39;;;;;;;13.7;8.1;;;;;;;1.4;92.6;99180;;;;
2022/12/05 05:47:39;;;;;;;13.7;8.1;;;;;;;1.4;92.8;99190;;;;
2022/12/05 05:57:41;;;;;;;19.9;10.7;;;;;;;1.5;92.9;99180;;;;
2022/12/05 06:07:39;;;;;;;19.9;10.7;;;;;;;1.5;92.8;99180;;;;
2022/12/05 06:17:39;;;;;;;19.9;10.7;;;;;;;1.3;92.9;99180;;;;
2022/12/05 06:28:39;;;;;;;19.3;10.3;;;;;;;1.4;93.3;99190;;;;
2022/12/05 06:38:39;;;;;;;19.3;10.3;;;;;;;1.3;93.4;99190;;;;
2022/12/05 06:48:39;;;;;;;19.3;10.3;;;;;;;1.5;93.4;99190;;;;
2022/12/05 06:59:39;;;;;;;19.5;10.9;;;;;;;1.6;93.3;99190;;;;
2022/12/05 07:10:39;;;;;;;19.5;10.9;;;;;;;1.8;93.2;99190;;;;
2022/12/05 07:21:39;;;;;;;19.5;10.9;;;;;;;1.7;93;99190;;;;
2022/12/05 07:31:39;;;;;;;21;12.3;;;;;;;1.8;93.2;99190;;;;
2022/12/05 07:41:39;;;;;;;21;12.3;;;;;;;1.8;92.8;99190;;;;
2022/12/05 07:51:40;;;;;;;21;12.3;;;;;;;1.9;92.8;99180;;;;
2022/12/05 08:02:39;;;;;;;24.8;12.8;;;;;;;2;92.7;99180;;;;
2022/12/05 08:13:39;;;;;;;24.8;12.8;;;;;;;2;92.5;99180;;;;
2022/12/05 08:23:39;;;;;;;26.9;15.7;;;;;;;2.3;92.5;99190;;;;
2022/12/05 08:34:39;;;;;;;26.9;15.7;;;;;;;2.4;91.9;99200;;;;
2022/12/05 08:44:39;;;;;;;26.9;15.7;;;;;;;2.5;91.6;99210;;;;
2022/12/05 08:54:39;;;;;;;24.8;15.1;;;;;;;2.7;91.5;99210;;;;
2022/12/05 09:05:39;;;;;;;24.8;15.1;;;;;;;3;91.1;99200;;;;
2022/12/05 09:15:39;;;;;;;24.8;15.1;;;;;;;3.1;90.4;99190;;;;
2022/12/05 09:25:39;;;;;;;27.8;17.4;;;;;;;3.2;90.2;99190;;;;
2022/12/05 09:36:39;;;;;;;27.8;17.4;;;;;;;3.1;90;99170;;;;
2022/12/05 09:47:39;;;;;;;27.8;17.4;;;;;;;3.5;90.1;99170;;;;
2022/12/05 09:57:39;;;;;;;27.6;19.5;;;;;;;4;89.3;99160;;;;
2022/12/05 10:08:39;;;;;;;27.6;19.5;;;;;;;3.9;88.4;99140;;;;
2022/12/05 10:18:39;;;;;;;27.6;19.5;;;;;;;4.3;87.9;99150;;;;
2022/12/05 10:28:39;;;;;;;30.1;25.3;;;;;;;4.3;87.8;99120;;;;
2022/12/05 10:38:39;;;;;;;30.1;25.3;;;;;;;4.4;87.7;99120;;;;
2022/12/05 10:49:39;;;;;;;30.1;25.3;;;;;;;4.5;87.2;99100;;;;
2022/12/05 11:00:45;;;;;;;34.7;26.1;;;;;;;4.7;86.7;99090;;;;
2022/12/05 11:10:42;;;;;;;34.7;26.1;;;;;;;4.9;86.8;99100;;;;
2022/12/05 11:21:39;;;;;;;34.7;26.1;;;;;;;4.9;86.6;99080;;;;
2022/12/05 11:31:39;;;;;;;34.3;26.8;;;;;;;4.9;86.5;99070;;;;
2022/12/05 11:41:39;;;;;;;34.3;26.8;;;;;;;4.7;87.7;99070;;;;
2022/12/05 11:52:39;;;;;;;34.3;26.8;;;;;;;5;87;99060;;;;
2022/12/05 12:03:39;;;;;;;30.4;25.2;;;;;;;5.2;86.9;99040;;;;
2022/12/05 12:13:39;;;;;;;30.4;25.2;;;;;;;5.4;86.4;99030;;;;
2022/12/05 12:24:39;;;;;;;32;25.6;;;;;;;5.4;86.1;99020;;;;
2022/12/05 12:35:39;;;;;;;32;25.6;;;;;;;6;85.5;99010;;;;
2022/12/05 12:45:39;;;;;;;32;25.6;;;;;;;6.1;84.9;99020;;;;
2022/12/05 12:56:39;;;;;;;30.4;22.2;;;;;;;6.3;83.5;99010;;;;
2022/12/05 13:06:39;;;;;;;30.4;22.2;;;;;;;6.7;83.5;99010;;;;
2022/12/05 13:17:39;;;;;;;30.4;22.2;;;;;;;6.6;82.5;99000;;;;
2022/12/05 13:27:41;;;;;;;30.1;24.6;;;;;;;7;81.9;99010;;;;
2022/12/05 13:49:39;;;;;;;30.1;24.6;;;;;;;6.9;82.1;99010;;;;
2022/12/05 14:00:39;;;;;;;28.6;24.3;;;;;;;6.8;81.4;99000;;;;
2022/12/05 14:10:39;;;;;;;28.6;24.3;;;;;;;6.6;81.8;99020;;;;
2022/12/05 14:21:39;;;;;;;28.6;24.3;;;;;;;6.4;82.5;99020;;;;
2022/12/05 14:31:39;;;;;;;24.5;21.7;;;;;;;6.4;83.3;99030;;;;
2022/12/05 14:42:39;;;;;;;24.5;21.7;;;;;;;6.4;83.6;99030;;;;
2022/12/05 14:52:40;;;;;;;35.7;26.2;;;;;;;6.4;83.7;99040;;;;
2022/12/05 15:02:40;;;;;;;35.7;26.2;;;;;;;6.3;83.7;99040;;;;
2022/12/05 15:12:39;;;;;;;35.7;26.2;;;;;;;6;84.3;99040;;;;
2022/12/05 15:23:39;;;;;;;69.1;52.1;;;;;;;5.8;85.1;99030;;;;
2022/12/05 15:34:39;;;;;;;69.1;52.1;;;;;;;5.5;85.7;99030;;;;
2022/12/05 15:44:39;;;;;;;69.1;52.1;;;;;;;5.5;86;99030;;;;
2022/12/05 15:54:39;;;;;;;56;42.1;;;;;;;5.4;86.1;99040;;;;
2022/12/05 16:04:39;;;;;;;56;42.1;;;;;;;5.3;85.9;99030;;;;
2022/12/05 16:14:39;;;;;;;56;42.1;;;;;;;5.1;86.1;99030;;;;
2022/12/05 16:24:39;;;;;;;55.2;38.9;;;;;;;4.7;86.1;99020;;;;
2022/12/05 16:35:39;;;;;;;55.2;38.9;;;;;;;4.5;86.4;99020;;;;
2022/12/05 16:46:39;;;;;;;55.2;38.9;;;;;;;4.2;86.2;99010;;;;
2022/12/05 16:57:39;;;;;;;52.1;34.4;;;;;;;4.1;86.6;99020;;;;
2022/12/05 17:08:39;;;;;;;52.1;34.4;;;;;;;4;87.2;99000;;;;
2022/12/05 17:18:39;;;;;;;52.1;34.4;;;;;;;3.9;87.5;99010;;;;
2022/12/05 17:29:39;;;;;;;51.1;28.4;;;;;;;4;87.9;99010;;;;
2022/12/05 17:40:39;;;;;;;51.1;28.4;;;;;;;4;88.3;99010;;;;
2022/12/05 17:51:39;;;;;;;51.1;28.4;;;;;;;4.2;88.7;99020;;;;
2022/12/05 18:02:39;;;;;;;58.2;36.5;;;;;;;4.4;89;99020;;;;
2022/12/05 18:13:39;;;;;;;58.2;36.5;;;;;;;4.6;89.1;99020;;;;
2022/12/05 18:24:39;;;;;;;49.9;33.5;;;;;;;4.8;89;99010;;;;
2022/12/05 18:34:39;;;;;;;49.9;33.5;;;;;;;5;88.9;99020;;;;
2022/12/05 18:45:39;;;;;;;49.9;33.5;;;;;;;5;88.7;99010;;;;
2022/12/05 18:56:39;;;;;;;55.7;37.8;;;;;;;5.1;88.6;99020;;;;
2022/12/05 19:06:40;;;;;;;55.7;37.8;;;;;;;5.2;88.2;99020;;;;
2022/12/05 19:17:39;;;;;;;55.7;37.8;;;;;;;5.2;88.1;99020;;;;
2022/12/05 19:27:39;;;;;;;89.9;66.3;;;;;;;5.2;88;99020;;;;
2022/12/05 19:37:39;;;;;;;89.9;66.3;;;;;;;5.1;87.8;99010;;;;
2022/12/05 19:47:39;;;;;;;89.9;66.3;;;;;;;5;87.9;99020;;;;
2022/12/05 19:58:39;;;;;;;47.3;38.1;;;;;;;5;87.9;99020;;;;
2022/12/05 20:09:39;;;;;;;47.3;38.1;;;;;;;5;87.9;99010;;;;
2022/12/05 20:19:39;;;;;;;47.3;38.1;;;;;;;5;87.9;99010;;;;
2022/12/05 20:29:40;;;;;;;54.7;36.1;;;;;;;5;87.8;99010;;;;
2022/12/05 20:40:39;;;;;;;54.7;36.1;;;;;;;5;87.8;99000;;;;
2022/12/05 20:51:39;;;;;;;73.6;49.2;;;;;;;5;87.7;99000;;;;
2022/12/05 21:02:39;;;;;;;73.6;49.2;;;;;;;4.9;88;99010;;;;
2022/12/05 21:13:39;;;;;;;73.6;49.2;;;;;;;5;88.1;99000;;;;
2022/12/05 21:24:39;;;;;;;63.1;50;;;;;;;5;88;99000;;;;
2022/12/05 21:35:39;;;;;;;63.1;50;;;;;;;4.9;87.9;98990;;;;
2022/12/05 21:45:39;;;;;;;63.1;50;;;;;;;4.9;88;98990;;;;
2022/12/05 21:55:40;;;;;;;54.5;41.3;;;;;;;4.9;87.9;98980;;;;
2022/12/05 22:05:39;;;;;;;54.5;41.3;;;;;;;4.8;87.7;98970;;;;
2022/12/05 22:15:39;;;;;;;54.5;41.3;;;;;;;4.8;87.7;98950;;;;
2022/12/05 22:26:39;;;;;;;53.8;40.4;;;;;;;4.7;88.2;98950;;;;
2022/12/05 22:36:39;;;;;;;53.8;40.4;;;;;;;4.8;88.4;98950;;;;
2022/12/05 22:46:39;;;;;;;53.8;40.4;;;;;;;4.8;88.5;98950;;;;
2022/12/05 22:56:39;;;;;;;53.3;44.5;;;;;;;4.8;88.6;98930;;;;
2022/12/05 23:06:39;;;;;;;53.3;44.5;;;;;;;4.9;88.6;98910;;;;
2022/12/05 23:17:40;;;;;;;53.3;44.5;;;;;;;4.8;88.5;98920;;;;
2022/12/05 23:27:39;;;;;;;74;53.9;;;;;;;4.8;88.5;98920;;;;
2022/12/05 23:38:39;;;;;;;74;53.9;;;;;;;4.8;88.7;98910;;;;
2022/12/05 23:48:39;;;;;;;74;53.9;;;;;;;4.8;88.3;98910;;;;
2022/12/05 23:59:39;;;;;;;82;57.5;;;;;;;4.9;88.7;98900;;;;
